createdAt,value
2022-08-20T01:50:02.738Z,14.77
2022-08-20T01:53:16.782Z,13.85
2022-08-20T01:59:17.433Z,12.50
2022-08-20T02:02:48.211Z,13.18
2022-08-20T02:30:58.812Z,16.08
2022-08-20T02:34:22.642Z,16.23
2022-08-20T02:44:31.903Z,17.58
2022-08-20T02:47:08.396Z,17.98
2022-08-20T02:54:17.704Z,16.50
2022-08-20T02:57:04.925Z,17.23
2022-08-20T02:59:44.210Z,19.77
2022-08-20T03:02:21.278Z,17.25
2022-08-20T03:09:17.999Z,18.17
2022-08-20T03:11:58.890Z,20.63
2022-08-20T03:19:32.231Z,22.95
2022-08-20T03:25:49.704Z,23.13
2022-08-20T03:28:17.893Z,25.23
2022-08-20T03:30:49.576Z,24.40
2022-08-20T03:33:16.585Z,26.58
2022-08-20T03:35:50.897Z,24.63
2022-08-20T03:38:21.545Z,26.67
2022-08-20T03:41:01.741Z,26.08
2022-08-20T03:43:30.631Z,25.52
2022-08-20T03:45:57.466Z,25.92
2022-08-20T03:48:24.067Z,27.48
2022-08-20T03:50:52.627Z,28.95
2022-08-20T03:53:19.690Z,27.58
2022-08-20T03:55:53.764Z,26.98
2022-08-20T03:58:22.036Z,27.55
2022-08-20T04:01:01.759Z,26.92
2022-08-20T04:04:02.477Z,25.83
2022-08-20T04:06:32.346Z,25.13
2022-08-20T04:08:59.153Z,26.83
2022-08-20T04:14:21.916Z,26.88
2022-08-20T04:16:48.959Z,26.58
2022-08-20T04:19:15.829Z,26.35
2022-08-20T04:21:42.369Z,27.27
2022-08-20T04:24:08.878Z,24.25
2022-08-20T04:26:51.389Z,26.73
2022-08-20T04:29:18.146Z,25.80
2022-08-20T04:34:37.694Z,26.45
2022-08-20T04:37:16.967Z,25.45
2022-08-20T04:39:44.257Z,26.15
2022-08-20T04:42:10.984Z,25.95
2022-08-20T04:47:04.403Z,24.98
2022-08-20T04:49:30.942Z,24.67
2022-08-20T04:51:57.558Z,25.33
2022-08-20T04:54:24.141Z,23.63
2022-08-20T04:56:51.387Z,25.48
2022-08-20T04:59:20.884Z,23.15
2022-08-20T05:01:49.627Z,25.77
2022-08-20T05:04:16.273Z,24.08
2022-08-20T05:06:50.307Z,26.05
2022-08-20T05:09:17.187Z,24.40
2022-08-20T05:14:40.602Z,26.35
2022-08-20T05:20:18.499Z,24.50
2022-08-20T05:34:14.189Z,24.20
2022-08-20T05:42:22.957Z,28.05
2022-08-20T05:44:54.083Z,26.80
2022-08-20T05:50:24.584Z,26.30
2022-08-20T05:52:57.949Z,25.48
2022-08-20T05:55:47.410Z,27.90
2022-08-20T06:55:15.473Z,28.70
2022-08-20T07:03:55.821Z,29.73
2022-08-20T07:06:26.043Z,29.95
2022-08-20T07:08:55.999Z,27.80
2022-08-20T07:11:28.498Z,28.02
2022-08-20T07:14:05.660Z,30.42
2022-08-20T07:16:32.536Z,31.58
2022-08-20T07:18:59.070Z,29.73
2022-08-20T07:21:25.805Z,29.25
2022-08-20T07:26:19.970Z,30.13
2022-08-20T07:28:46.643Z,28.92
2022-08-20T07:34:01.286Z,31.07
2022-08-20T07:36:28.195Z,32.40
2022-08-20T07:38:55.101Z,32.20
2022-08-20T07:41:23.511Z,34.15
2022-08-20T07:43:50.024Z,35.47
2022-08-20T07:46:20.724Z,34.08
2022-08-20T07:48:49.822Z,34.45
2022-08-20T07:51:19.365Z,34.45
2022-08-20T07:53:47.323Z,34.47
2022-08-20T07:56:17.710Z,33.50
2022-08-20T07:58:52.958Z,33.28
2022-08-20T08:05:19.154Z,32.92
2022-08-20T08:07:46.384Z,35.20
2022-08-20T08:10:20.791Z,36.00
2022-08-20T08:12:52.854Z,35.40
2022-08-20T08:15:24.420Z,35.20
2022-08-20T08:17:52.818Z,32.95
2022-08-20T08:20:20.411Z,36.00
2022-08-20T08:22:47.014Z,34.72
2022-08-20T08:25:18.753Z,37.60
2022-08-20T08:37:45.009Z,36.20
2022-08-20T08:41:23.965Z,34.58
2022-08-20T09:44:41.135Z,34.40
2022-08-20T09:47:56.093Z,34.88
2022-08-20T09:54:19.592Z,30.55
2022-08-20T09:56:49.183Z,30.80
2022-08-20T09:59:19.778Z,30.67
2022-08-20T10:01:46.743Z,28.85
2022-08-20T10:04:44.776Z,29.73
2022-08-20T10:07:12.928Z,27.75
2022-08-20T10:09:55.313Z,27.60
2022-08-20T10:12:28.168Z,27.60
2022-08-20T10:15:03.038Z,26.95
2022-08-20T10:17:29.765Z,27.00
2022-08-20T10:19:56.708Z,26.75
2022-08-20T10:22:23.481Z,26.60
2022-08-20T10:32:01.069Z,24.63
2022-08-20T10:34:27.883Z,22.10
2022-08-20T10:37:03.287Z,22.77
2022-08-20T10:39:33.190Z,23.90
2022-08-20T10:42:16.896Z,21.92
2022-08-20T10:44:47.130Z,22.70
2022-08-20T10:47:20.828Z,19.52
2022-08-20T10:49:51.541Z,21.70
2022-08-20T10:54:59.635Z,15.63
2022-08-20T10:57:57.333Z,15.63
2022-08-20T11:00:24.310Z,13.63
2022-08-20T11:03:00.718Z,14.43
2022-08-20T11:05:49.434Z,14.55
2022-08-20T11:08:34.417Z,12.20
2022-08-20T11:14:06.366Z,12.30
2022-08-20T11:46:16.757Z,8.57
2022-08-20T11:48:43.539Z,8.57
2022-08-20T11:51:27.849Z,8.95
2022-08-20T11:53:57.866Z,9.18
2022-08-20T11:56:55.007Z,9.27
2022-08-20T12:17:31.794Z,7.93
2022-08-20T12:46:20.061Z,7.10
2022-08-20T12:49:34.133Z,6.45
2022-08-20T12:52:29.014Z,6.85
2022-08-20T12:56:14.868Z,8.10
2022-08-20T13:06:07.553Z,7.82
2022-08-20T13:08:47.367Z,8.85
2022-08-20T13:11:14.380Z,8.30
2022-08-20T13:13:41.274Z,8.38
2022-08-20T13:16:08.026Z,9.95
2022-08-20T13:19:04.828Z,9.10
2022-08-20T13:21:42.691Z,8.85
2022-08-20T13:24:11.447Z,8.38
2022-08-20T13:26:42.480Z,9.32
2022-08-20T13:29:09.312Z,9.50
2022-08-20T13:31:36.067Z,9.38
2022-08-20T13:34:06.084Z,9.00
2022-08-20T13:38:05.458Z,11.25
2022-08-20T13:40:08.937Z,10.30
2022-08-20T13:42:36.237Z,9.38
2022-08-20T13:45:07.069Z,9.35
2022-08-20T13:58:25.602Z,10.02
2022-08-20T14:00:57.993Z,9.98
2022-08-20T14:03:28.345Z,9.52
2022-08-20T14:05:57.733Z,10.90
2022-08-20T14:08:30.703Z,10.77
2022-08-20T14:10:57.693Z,11.75
2022-08-20T14:13:26.723Z,10.55
2022-08-20T14:15:53.835Z,10.68
2022-08-20T14:18:20.896Z,10.85
2022-08-20T14:20:47.911Z,11.95
2022-08-20T14:23:15.219Z,12.23
2022-08-20T14:25:46.407Z,12.88
2022-08-20T14:28:18.184Z,12.18
2022-08-20T14:30:53.267Z,12.35
2022-08-20T14:33:20.742Z,11.23
2022-08-20T14:35:47.554Z,12.80
2022-08-20T14:38:14.168Z,13.07
2022-08-20T14:40:40.945Z,13.43
2022-08-20T14:45:40.497Z,12.73
2022-08-20T14:50:36.530Z,14.85
2022-08-20T14:53:08.459Z,14.10
2022-08-20T14:55:38.584Z,13.60
2022-08-20T14:58:35.388Z,12.75
2022-08-20T15:01:02.149Z,13.75
2022-08-20T15:03:30.660Z,13.35
2022-08-20T15:05:58.872Z,13.82
2022-08-20T15:08:28.970Z,13.18
2022-08-20T15:10:55.577Z,13.30
2022-08-20T15:13:22.052Z,13.95
2022-08-20T15:15:48.596Z,13.18
2022-08-20T15:18:15.166Z,12.05
2022-08-20T15:20:41.710Z,13.35
2022-08-20T15:23:08.229Z,13.93
2022-08-20T15:25:37.705Z,14.15
2022-08-20T15:28:07.399Z,12.98
2022-08-20T15:30:57.402Z,14.18
2022-08-20T15:33:24.120Z,13.75
2022-08-20T15:35:50.743Z,14.00
2022-08-20T15:40:50.898Z,13.38
2022-08-20T15:43:17.866Z,13.35
2022-08-20T15:45:44.537Z,13.88
2022-08-20T15:50:48.506Z,14.98
2022-08-20T15:53:31.309Z,14.75
2022-08-20T15:56:08.459Z,15.27
2022-08-20T15:58:50.020Z,13.15
2022-08-20T16:01:43.167Z,15.20
2022-08-20T16:04:38.768Z,14.55
2022-08-20T16:07:15.098Z,15.57
2022-08-20T16:09:50.940Z,15.20
2022-08-20T16:12:31.826Z,14.82
2022-08-20T16:15:13.650Z,13.90
2022-08-20T16:17:58.375Z,15.32
2022-08-20T16:20:41.506Z,15.73
2022-08-20T16:23:11.250Z,14.75
2022-08-20T16:26:10.020Z,15.77
2022-08-20T16:29:35.533Z,15.70
2022-08-20T16:32:52.587Z,16.75
2022-08-20T16:36:07.456Z,16.27
2022-08-20T16:39:18.586Z,14.65
2022-08-20T16:42:17.951Z,14.93
2022-08-20T16:44:48.306Z,15.65
2022-08-20T16:47:34.492Z,16.50
2022-08-20T16:50:07.416Z,16.92
2022-08-20T16:52:34.325Z,16.20
2022-08-20T16:55:04.216Z,16.70
2022-08-20T16:57:33.667Z,15.98
2022-08-20T17:00:13.488Z,15.75
2022-08-20T17:03:31.565Z,16.15
2022-08-20T17:06:36.796Z,15.60
2022-08-20T17:09:38.235Z,15.68
2022-08-20T17:12:26.245Z,16.48
2022-08-20T17:17:31.220Z,14.75
2022-08-20T17:20:01.096Z,15.57
2022-08-20T17:22:39.751Z,15.90
2022-08-20T17:25:51.174Z,16.67
2022-08-20T17:32:11.639Z,13.38
2022-08-20T17:35:03.236Z,10.40
2022-08-20T17:37:42.086Z,7.55
2022-08-20T17:40:56.095Z,7.03
2022-08-20T17:43:31.786Z,6.25
2022-08-20T17:46:02.043Z,7.30
2022-08-20T17:48:35.601Z,7.00
2022-08-20T17:51:16.583Z,6.07
2022-08-20T17:53:46.744Z,5.50
2022-08-20T17:56:19.724Z,6.15
2022-08-20T17:59:24.113Z,5.60
2022-08-20T18:02:13.384Z,5.90
2022-08-20T18:04:40.190Z,6.63
2022-08-20T18:07:18.056Z,7.80
2022-08-20T18:09:57.505Z,7.72
2022-08-20T18:12:36.189Z,7.97
2022-08-20T18:15:26.730Z,8.00
2022-08-20T18:18:08.377Z,7.75
2022-08-20T18:21:14.348Z,7.82
2022-08-20T18:24:00.239Z,8.55
2022-08-20T18:26:40.277Z,7.53
2022-08-20T18:29:19.644Z,7.18
2022-08-20T18:31:56.014Z,8.38
2022-08-20T18:34:44.144Z,7.13
2022-08-20T18:37:14.410Z,7.90
2022-08-20T18:39:46.625Z,7.15
2022-08-20T18:42:25.903Z,7.18
2022-08-20T18:44:55.166Z,7.00
2022-08-20T18:47:41.189Z,7.00
2022-08-20T18:50:16.130Z,6.88
2022-08-20T18:52:50.703Z,6.95
2022-08-20T18:55:38.477Z,7.10
2022-08-20T18:58:31.304Z,5.97
2022-08-20T19:00:58.458Z,7.53
2022-08-20T19:03:34.133Z,6.60
2022-08-20T19:06:36.327Z,8.07
2022-08-20T19:09:27.693Z,7.95
2022-08-20T19:12:30.094Z,7.70
2022-08-20T19:15:23.203Z,8.05
2022-08-20T19:21:31.847Z,8.27
2022-08-20T20:09:42.550Z,7.68
2022-08-20T20:15:27.644Z,6.97
2022-08-20T20:22:05.067Z,6.47
2022-08-20T20:32:02.301Z,6.82
2022-08-20T20:35:22.428Z,6.78
2022-08-20T20:38:18.457Z,7.95
2022-08-20T20:41:01.239Z,6.90
2022-08-20T20:44:44.848Z,7.35
2022-08-20T21:05:45.315Z,6.20
2022-08-20T21:09:40.348Z,6.78
2022-08-20T21:11:54.601Z,5.97
2022-08-20T21:14:29.436Z,7.10
2022-08-20T21:17:07.037Z,5.75
2022-08-20T21:20:02.072Z,6.20
2022-08-20T21:22:30.405Z,6.22
2022-08-20T21:24:57.256Z,5.53
2022-08-20T21:27:26.633Z,6.25
2022-08-20T21:29:53.864Z,5.70
2022-08-20T21:32:21.184Z,6.35
2022-08-20T21:34:48.677Z,5.50
2022-08-20T21:37:16.213Z,5.70
2022-08-20T21:39:43.348Z,5.80
2022-08-20T21:42:22.226Z,5.80
2022-08-20T21:44:56.479Z,6.13
2022-08-20T21:47:22.968Z,6.57
2022-08-20T21:49:49.622Z,6.93
2022-08-20T21:54:42.605Z,5.10
2022-08-20T21:57:18.332Z,6.45
2022-08-20T21:59:45.151Z,6.00
2022-08-20T22:04:38.356Z,6.47
2022-08-20T22:07:05.700Z,6.88
2022-08-20T22:09:33.244Z,5.35
2022-08-20T22:12:03.815Z,5.72
2022-08-20T22:14:31.214Z,5.78
2022-08-20T22:16:58.097Z,6.28
2022-08-20T22:19:24.657Z,5.90
2022-08-20T22:21:53.224Z,5.78
2022-08-20T22:24:19.839Z,6.07
2022-08-20T22:26:46.345Z,5.85
2022-08-20T22:29:12.923Z,5.78
2022-08-20T22:31:41.235Z,6.55
2022-08-20T22:34:10.480Z,6.43
2022-08-20T22:36:37.130Z,7.13
2022-08-20T22:39:04.881Z,7.13
2022-08-20T22:41:31.398Z,7.88
2022-08-20T22:43:57.966Z,7.32
2022-08-20T22:46:32.096Z,7.57
2022-08-20T22:48:58.959Z,8.40
2022-08-20T22:51:31.997Z,9.70
2022-08-20T22:54:04.200Z,8.70
2022-08-20T22:56:30.746Z,8.43
2022-08-20T22:58:59.425Z,9.55
2022-08-20T23:01:27.507Z,9.57
2022-08-20T23:03:55.375Z,9.93
2022-08-20T23:06:24.222Z,8.20
2022-08-20T23:08:50.844Z,9.77
2022-08-20T23:11:17.435Z,8.93
2022-08-20T23:13:44.029Z,8.73
2022-08-20T23:16:10.603Z,9.30
2022-08-20T23:18:37.052Z,8.77
2022-08-20T23:21:04.205Z,9.55
2022-08-20T23:23:30.757Z,8.65
2022-08-20T23:25:57.468Z,8.00
2022-08-20T23:30:53.169Z,8.02
2022-08-20T23:33:21.121Z,7.82
2022-08-20T23:35:48.280Z,7.88
2022-08-20T23:38:15.280Z,7.20
2022-08-20T23:40:42.390Z,6.47
2022-08-20T23:43:09.777Z,8.18
2022-08-20T23:45:39.747Z,6.97
2022-08-20T23:48:06.824Z,7.13
2022-08-20T23:50:33.364Z,7.22
2022-08-20T23:52:59.866Z,6.72
2022-08-20T23:55:26.633Z,7.38
2022-08-20T23:57:53.941Z,7.38
